Current | Radar | Forecast | Satellite
Updated: 10:54 AM ChST on October 23, 2018
Observed at Guam Agana, Guam
Temperature 90°F / 32°C
Humidity 70%
Dew Point 79°F / 26°C
Wind ENE at 13 mph / 20 km/h
Pressure 29.77 in / 1008 hPa (Falling)
Conditions Partly Cloudy
Visibility 10.0 miles / 16.1 kilometers
UV 12 out of 16
Clouds (FEW) : 2600 ft / 792 m
Yesterday's Maximum 88°F / 31°C
Yesterday's Minimum 78°F / 26°C approx.
Yesterday's Cooling Degree Days 18 approx.
Sunrise5:48 AM +09
Sunset5:43 PM +09
Moon Rise4:51 PM +09
Moon Set4:27 AM +09
Moon PhaseMoon Phase
Waxing Gibbous
Raw METARMETAR PGUM 230054Z 06011KT 10SM FEW026 32/26 A2980 RMK AO2 SLP081 T03220261

Palau, PW

Current Radar

Radar Map
Zoom into radar image
Zoom into animated radar image


Click here for Marine Information
Scientific forecaster discussion (NWS)

Units: English | Metric

Find the Weather for any City, State or Zipcode, or Country:

U.S. State List | Severe Weather | Tropical Storms | Ski Conditions
United States | Canada | Central America | South America | Asia | Europe | Australia | Africa | Islands

Weather Underground

© Copyright 2018
The Weather Company, LLC